Effie, Mississippi
Current Conditions -  °F | °C
As of 4:15 AM on Thursday 23 Oct 2014 (Local Time) from KCKM Reporting Station
Clear Clear  
Wind Chill: 40°   Ceiling: Unl
Heat Index: 43°   Visibility: 10mi
Dew Point: 43°   Wind: 5mph
Humidity: 100%   Direction: 350°N
Pressure: 30.17"   Gusts: NA
Location:  33.9483°N, 90.1764°W
Report Text: KCKM 230915Z AUTO 35004KT 10SM CLR 06/06 A3017 RMK AO1
Loading
Personal Weather Stations






























Interactive Weather Map
Tropical Storm Tracking
New forecast layout! Learn more

10-Day Weather Forecast

Advertisements
Track Severe Weather on mobile